Pagrindinis puslapis
METAR-TAF:

METAR-TAF

Oro uostai :

Cape Lisburne, Aliaska, Jungtinės Amerikos Valstijos

platuma: 68-53N, ilguma: 166-06W, Aukštis: 4 m

Dabartinis oras

Ataskaita buvo paskelbta 44 minutes, ne 18:55 UTC
Ramus vėjas
Temperatūra -31°C
Drėgmė 75%
Slėgis 1017 hPa
Matomumas: 16.1 km
Giedras dangus

METAR: PALU 161855Z AUTO 00000KT 10SM CLR M31/M34 A3002 RMK AO2 SLP165 T13071338

Laikas: 10:39 (19:39 UTC)


TAF: trūkstamas

Orai ataskaitas ir orų prognozės (METAR, TAF).

turimą stotys yra geltonos ir raudonos taškus žemėlapyje.

Perkelti pele per norėdami pamatyti stoties vardą.

Tada spustelėkite, norėdami matyti oro stebėjimo ir prognozės.

Norėdami pakeisti žemėlapį: spustelėkite ant žalios mygtukų su juodo kryžiaus žemyn,; žalią mygtuką su brūkšneliu, jei norite nutolinti; arba žalių rodyklių gretimoms žemėlapius.


METAR-TAF: